sensor_id;sensor_type;location;lat;lon;timestamp;temperature;humidity
10459;DHT22;5277;48.722;8.736;2023-08-08T00:00:35;12.90;99.90
10459;DHT22;5277;48.722;8.736;2023-08-08T00:03:00;13.00;99.90
10459;DHT22;5277;48.722;8.736;2023-08-08T00:05:26;13.10;99.90
10459;DHT22;5277;48.722;8.736;2023-08-08T00:07:52;13.00;99.90
10459;DHT22;5277;48.722;8.736;2023-08-08T00:10:17;13.10;99.90
10459;DHT22;5277;48.722;8.736;2023-08-08T00:12:43;13.00;99.90
10459;DHT22;5277;48.722;8.736;2023-08-08T00:15:09;13.00;99.90
10459;DHT22;5277;48.722;8.736;2023-08-08T00:17:34;13.00;99.90
10459;DHT22;5277;48.722;8.736;2023-08-08T00:20:00;13.00;99.90
10459;DHT22;5277;48.722;8.736;2023-08-08T00:22:26;13.00;99.90
10459;DHT22;5277;48.722;8.736;2023-08-08T00:24:52;13.00;99.90
10459;DHT22;5277;48.722;8.736;2023-08-08T00:27:17;13.00;99.90
10459;DHT22;5277;48.722;8.736;2023-08-08T00:29:43;13.10;99.90
10459;DHT22;5277;48.722;8.736;2023-08-08T00:32:08;13.00;99.90
10459;DHT22;5277;48.722;8.736;2023-08-08T00:34:34;13.00;99.90
10459;DHT22;5277;48.722;8.736;2023-08-08T00:36:59;13.00;99.90
10459;DHT22;5277;48.722;8.736;2023-08-08T00:39:25;13.00;99.90
10459;DHT22;5277;48.722;8.736;2023-08-08T00:41:50;13.00;99.90
10459;DHT22;5277;48.722;8.736;2023-08-08T00:44:16;13.00;99.90
10459;DHT22;5277;48.722;8.736;2023-08-08T00:46:42;12.90;99.90
10459;DHT22;5277;48.722;8.736;2023-08-08T00:49:07;12.90;99.90
10459;DHT22;5277;48.722;8.736;2023-08-08T00:51:33;13.00;99.90
10459;DHT22;5277;48.722;8.736;2023-08-08T00:53:59;12.90;99.90
10459;DHT22;5277;48.722;8.736;2023-08-08T00:56:26;12.80;99.90
10459;DHT22;5277;48.722;8.736;2023-08-08T00:58:52;12.80;99.90
10459;DHT22;5277;48.722;8.736;2023-08-08T01:01:18;12.80;99.90
10459;DHT22;5277;48.722;8.736;2023-08-08T01:03:44;12.70;99.90
10459;DHT22;5277;48.722;8.736;2023-08-08T01:08:51;12.70;99.90
10459;DHT22;5277;48.722;8.736;2023-08-08T01:11:19;12.70;99.90
10459;DHT22;5277;48.722;8.736;2023-08-08T01:13:45;12.60;99.90
10459;DHT22;5277;48.722;8.736;2023-08-08T01:16:12;12.60;99.90
10459;DHT22;5277;48.722;8.736;2023-08-08T01:18:39;12.60;99.90
10459;DHT22;5277;48.722;8.736;2023-08-08T01:21:07;12.60;99.90
10459;DHT22;5277;48.722;8.736;2023-08-08T01:23:43;12.50;99.90
10459;DHT22;5277;48.722;8.736;2023-08-08T01:26:10;12.60;99.90
10459;DHT22;5277;48.722;8.736;2023-08-08T01:28:36;12.60;99.90
10459;DHT22;5277;48.722;8.736;2023-08-08T01:31:02;12.60;99.90
10459;DHT22;5277;48.722;8.736;2023-08-08T01:33:27;12.50;99.90
10459;DHT22;5277;48.722;8.736;2023-08-08T01:35:56;12.50;99.90
10459;DHT22;5277;48.722;8.736;2023-08-08T01:38:28;12.50;99.90
10459;DHT22;5277;48.722;8.736;2023-08-08T01:40:57;12.50;99.90
10459;DHT22;5277;48.722;8.736;2023-08-08T01:43:23;12.50;99.90
10459;DHT22;5277;48.722;8.736;2023-08-08T01:45:50;12.50;99.90
10459;DHT22;5277;48.722;8.736;2023-08-08T01:48:16;12.40;99.90
10459;DHT22;5277;48.722;8.736;2023-08-08T01:50:41;12.40;99.90
10459;DHT22;5277;48.722;8.736;2023-08-08T01:53:07;12.30;99.90
10459;DHT22;5277;48.722;8.736;2023-08-08T01:55:33;12.30;99.90
10459;DHT22;5277;48.722;8.736;2023-08-08T01:57:58;12.30;99.90
10459;DHT22;5277;48.722;8.736;2023-08-08T02:00:24;12.40;99.90
10459;DHT22;5277;48.722;8.736;2023-08-08T02:02:50;12.40;99.90
10459;DHT22;5277;48.722;8.736;2023-08-08T02:05:15;12.30;99.90
10459;DHT22;5277;48.722;8.736;2023-08-08T02:07:41;12.30;99.90
10459;DHT22;5277;48.722;8.736;2023-08-08T02:10:06;12.20;99.90
10459;DHT22;5277;48.722;8.736;2023-08-08T02:12:32;12.20;99.90
10459;DHT22;5277;48.722;8.736;2023-08-08T02:14:58;12.20;99.90
10459;DHT22;5277;48.722;8.736;2023-08-08T02:17:25;12.20;99.90
10459;DHT22;5277;48.722;8.736;2023-08-08T02:19:51;12.30;99.90
10459;DHT22;5277;48.722;8.736;2023-08-08T02:22:17;12.20;99.90
10459;DHT22;5277;48.722;8.736;2023-08-08T02:24:42;12.20;99.90
10459;DHT22;5277;48.722;8.736;2023-08-08T02:27:08;12.20;99.90
10459;DHT22;5277;48.722;8.736;2023-08-08T02:29:34;12.20;99.90
10459;DHT22;5277;48.722;8.736;2023-08-08T02:32:00;12.10;99.90
10459;DHT22;5277;48.722;8.736;2023-08-08T02:34:25;12.20;99.90
10459;DHT22;5277;48.722;8.736;2023-08-08T02:36:51;12.20;99.90
10459;DHT22;5277;48.722;8.736;2023-08-08T02:39:16;12.10;99.90
10459;DHT22;5277;48.722;8.736;2023-08-08T02:41:42;12.10;99.90
10459;DHT22;5277;48.722;8.736;2023-08-08T02:44:08;12.10;99.90
10459;DHT22;5277;48.722;8.736;2023-08-08T02:46:33;12.10;99.90
10459;DHT22;5277;48.722;8.736;2023-08-08T02:48:59;12.00;99.90
10459;DHT22;5277;48.722;8.736;2023-08-08T02:51:25;12.00;99.90
10459;DHT22;5277;48.722;8.736;2023-08-08T02:53:50;12.00;99.90
10459;DHT22;5277;48.722;8.736;2023-08-08T02:56:16;12.10;99.90
10459;DHT22;5277;48.722;8.736;2023-08-08T02:58:41;12.00;99.90
10459;DHT22;5277;48.722;8.736;2023-08-08T03:01:07;12.00;99.90
10459;DHT22;5277;48.722;8.736;2023-08-08T03:03:33;12.00;99.90
10459;DHT22;5277;48.722;8.736;2023-08-08T03:05:58;12.00;99.90
10459;DHT22;5277;48.722;8.736;2023-08-08T03:08:24;12.00;99.90
10459;DHT22;5277;48.722;8.736;2023-08-08T03:10:49;12.10;99.90
10459;DHT22;5277;48.722;8.736;2023-08-08T03:13:15;12.10;99.90
10459;DHT22;5277;48.722;8.736;2023-08-08T03:15:40;12.10;99.90
10459;DHT22;5277;48.722;8.736;2023-08-08T03:18:06;12.20;99.90
10459;DHT22;5277;48.722;8.736;2023-08-08T03:20:32;12.20;99.90
10459;DHT22;5277;48.722;8.736;2023-08-08T03:22:57;12.30;99.90
10459;DHT22;5277;48.722;8.736;2023-08-08T03:25:23;12.30;99.90
10459;DHT22;5277;48.722;8.736;2023-08-08T03:27:48;12.30;99.90
10459;DHT22;5277;48.722;8.736;2023-08-08T03:30:14;12.40;99.90
10459;DHT22;5277;48.722;8.736;2023-08-08T03:32:40;12.40;99.90
10459;DHT22;5277;48.722;8.736;2023-08-08T03:35:06;12.40;99.90
10459;DHT22;5277;48.722;8.736;2023-08-08T03:37:31;12.40;99.90
10459;DHT22;5277;48.722;8.736;2023-08-08T03:39:57;12.50;99.90
10459;DHT22;5277;48.722;8.736;2023-08-08T03:42:23;12.50;99.90
10459;DHT22;5277;48.722;8.736;2023-08-08T03:44:48;12.50;99.90
10459;DHT22;5277;48.722;8.736;2023-08-08T03:47:14;12.50;99.90
10459;DHT22;5277;48.722;8.736;2023-08-08T03:49:39;12.60;99.90
10459;DHT22;5277;48.722;8.736;2023-08-08T03:52:05;12.60;99.90
10459;DHT22;5277;48.722;8.736;2023-08-08T03:54:31;12.30;99.90
10459;DHT22;5277;48.722;8.736;2023-08-08T03:56:56;12.30;99.90
10459;DHT22;5277;48.722;8.736;2023-08-08T03:59:22;12.30;99.90
10459;DHT22;5277;48.722;8.736;2023-08-08T04:01:48;12.30;99.90
10459;DHT22;5277;48.722;8.736;2023-08-08T04:04:14;12.30;99.90
10459;DHT22;5277;48.722;8.736;2023-08-08T04:06:40;12.30;99.90
10459;DHT22;5277;48.722;8.736;2023-08-08T04:09:05;12.20;99.90
10459;DHT22;5277;48.722;8.736;2023-08-08T04:11:32;12.20;99.90
10459;DHT22;5277;48.722;8.736;2023-08-08T04:13:57;12.20;99.90
10459;DHT22;5277;48.722;8.736;2023-08-08T04:16:23;12.10;99.90
10459;DHT22;5277;48.722;8.736;2023-08-08T04:18:48;12.10;99.90
10459;DHT22;5277;48.722;8.736;2023-08-08T04:21:14;12.10;99.90
10459;DHT22;5277;48.722;8.736;2023-08-08T04:23:40;12.10;99.90
10459;DHT22;5277;48.722;8.736;2023-08-08T04:26:05;12.00;99.90
10459;DHT22;5277;48.722;8.736;2023-08-08T04:28:31;12.00;99.90
10459;DHT22;5277;48.722;8.736;2023-08-08T04:30:57;12.00;99.90
10459;DHT22;5277;48.722;8.736;2023-08-08T04:33:22;12.00;99.90
10459;DHT22;5277;48.722;8.736;2023-08-08T04:35:48;12.00;99.90
10459;DHT22;5277;48.722;8.736;2023-08-08T04:38:14;12.00;99.90
10459;DHT22;5277;48.722;8.736;2023-08-08T04:40:41;12.10;99.90
10459;DHT22;5277;48.722;8.736;2023-08-08T04:43:06;12.00;99.90
10459;DHT22;5277;48.722;8.736;2023-08-08T04:45:32;12.00;99.90
10459;DHT22;5277;48.722;8.736;2023-08-08T04:47:58;12.00;99.90
10459;DHT22;5277;48.722;8.736;2023-08-08T04:50:24;12.00;99.90
10459;DHT22;5277;48.722;8.736;2023-08-08T04:52:50;12.00;99.90
10459;DHT22;5277;48.722;8.736;2023-08-08T04:55:15;12.10;99.90
10459;DHT22;5277;48.722;8.736;2023-08-08T04:57:41;12.10;99.90
10459;DHT22;5277;48.722;8.736;2023-08-08T05:00:07;12.00;99.90
10459;DHT22;5277;48.722;8.736;2023-08-08T05:02:34;12.00;99.90
10459;DHT22;5277;48.722;8.736;2023-08-08T05:05:00;12.10;99.90
10459;DHT22;5277;48.722;8.736;2023-08-08T05:07:26;12.10;99.90
10459;DHT22;5277;48.722;8.736;2023-08-08T05:09:52;12.10;99.90
10459;DHT22;5277;48.722;8.736;2023-08-08T05:12:17;12.10;99.90
10459;DHT22;5277;48.722;8.736;2023-08-08T05:14:43;12.10;99.90
10459;DHT22;5277;48.722;8.736;2023-08-08T05:17:09;12.20;99.90
10459;DHT22;5277;48.722;8.736;2023-08-08T05:19:34;12.20;99.90
10459;DHT22;5277;48.722;8.736;2023-08-08T05:22:00;12.20;99.90
10459;DHT22;5277;48.722;8.736;2023-08-08T05:24:26;12.20;99.90
10459;DHT22;5277;48.722;8.736;2023-08-08T05:26:52;12.20;99.90
10459;DHT22;5277;48.722;8.736;2023-08-08T05:29:19;12.20;99.90
10459;DHT22;5277;48.722;8.736;2023-08-08T05:31:45;12.30;99.90
10459;DHT22;5277;48.722;8.736;2023-08-08T05:34:11;12.20;99.90
10459;DHT22;5277;48.722;8.736;2023-08-08T05:36:36;12.30;99.90
10459;DHT22;5277;48.722;8.736;2023-08-08T05:39:02;12.30;99.90
10459;DHT22;5277;48.722;8.736;2023-08-08T05:41:27;12.30;99.90
10459;DHT22;5277;48.722;8.736;2023-08-08T05:43:53;12.40;99.90
10459;DHT22;5277;48.722;8.736;2023-08-08T05:46:19;12.40;99.90
10459;DHT22;5277;48.722;8.736;2023-08-08T05:48:44;12.50;99.90
10459;DHT22;5277;48.722;8.736;2023-08-08T05:51:10;12.50;99.90
10459;DHT22;5277;48.722;8.736;2023-08-08T05:53:35;12.50;99.90
10459;DHT22;5277;48.722;8.736;2023-08-08T05:56:03;12.50;99.90
10459;DHT22;5277;48.722;8.736;2023-08-08T05:58:29;12.50;99.90
10459;DHT22;5277;48.722;8.736;2023-08-08T06:00:55;12.50;99.90
10459;DHT22;5277;48.722;8.736;2023-08-08T06:03:20;12.60;99.90
10459;DHT22;5277;48.722;8.736;2023-08-08T06:05:46;12.70;99.90
10459;DHT22;5277;48.722;8.736;2023-08-08T06:08:11;12.90;99.90
10459;DHT22;5277;48.722;8.736;2023-08-08T06:10:38;13.00;99.90
10459;DHT22;5277;48.722;8.736;2023-08-08T06:13:04;13.20;99.90
10459;DHT22;5277;48.722;8.736;2023-08-08T06:15:30;13.50;99.90
10459;DHT22;5277;48.722;8.736;2023-08-08T06:17:56;13.60;99.90
10459;DHT22;5277;48.722;8.736;2023-08-08T06:20:22;13.90;99.90
10459;DHT22;5277;48.722;8.736;2023-08-08T06:22:48;14.00;99.90
10459;DHT22;5277;48.722;8.736;2023-08-08T06:25:14;14.20;99.90
10459;DHT22;5277;48.722;8.736;2023-08-08T06:27:40;14.30;99.90
10459;DHT22;5277;48.722;8.736;2023-08-08T06:30:06;14.40;99.90
10459;DHT22;5277;48.722;8.736;2023-08-08T06:32:33;14.60;99.90
10459;DHT22;5277;48.722;8.736;2023-08-08T06:34:59;14.80;99.90
10459;DHT22;5277;48.722;8.736;2023-08-08T06:37:25;14.70;99.90
10459;DHT22;5277;48.722;8.736;2023-08-08T06:39:50;14.90;99.90
10459;DHT22;5277;48.722;8.736;2023-08-08T06:42:16;15.20;99.90
10459;DHT22;5277;48.722;8.736;2023-08-08T06:44:43;15.30;99.90
10459;DHT22;5277;48.722;8.736;2023-08-08T06:47:09;15.60;99.90
10459;DHT22;5277;48.722;8.736;2023-08-08T06:49:34;15.70;99.90
10459;DHT22;5277;48.722;8.736;2023-08-08T06:52:00;16.00;99.90
10459;DHT22;5277;48.722;8.736;2023-08-08T06:54:26;16.20;99.90
10459;DHT22;5277;48.722;8.736;2023-08-08T06:56:53;16.50;99.90
10459;DHT22;5277;48.722;8.736;2023-08-08T06:59:19;16.80;99.90
10459;DHT22;5277;48.722;8.736;2023-08-08T07:01:45;17.10;99.90
10459;DHT22;5277;48.722;8.736;2023-08-08T07:04:11;17.40;99.90
10459;DHT22;5277;48.722;8.736;2023-08-08T07:06:36;17.60;99.90
10459;DHT22;5277;48.722;8.736;2023-08-08T07:09:02;17.60;99.80
10459;DHT22;5277;48.722;8.736;2023-08-08T07:11:27;17.80;99.80
10459;DHT22;5277;48.722;8.736;2023-08-08T07:13:53;17.90;99.40
10459;DHT22;5277;48.722;8.736;2023-08-08T07:16:19;18.20;99.50
10459;DHT22;5277;48.722;8.736;2023-08-08T07:18:44;18.40;99.40
10459;DHT22;5277;48.722;8.736;2023-08-08T07:21:10;18.60;98.70
10459;DHT22;5277;48.722;8.736;2023-08-08T07:23:36;18.70;98.30
10459;DHT22;5277;48.722;8.736;2023-08-08T07:26:01;18.90;98.20
10459;DHT22;5277;48.722;8.736;2023-08-08T07:28:27;19.00;98.00
10459;DHT22;5277;48.722;8.736;2023-08-08T07:30:52;19.10;97.70
10459;DHT22;5277;48.722;8.736;2023-08-08T07:33:18;19.10;97.50
10459;DHT22;5277;48.722;8.736;2023-08-08T07:35:43;19.00;97.30
10459;DHT22;5277;48.722;8.736;2023-08-08T07:38:09;19.00;97.20
10459;DHT22;5277;48.722;8.736;2023-08-08T07:40:35;19.00;97.10
10459;DHT22;5277;48.722;8.736;2023-08-08T07:43:01;18.90;97.00
10459;DHT22;5277;48.722;8.736;2023-08-08T07:45:27;18.90;97.70
10459;DHT22;5277;48.722;8.736;2023-08-08T07:47:53;18.90;97.60
10459;DHT22;5277;48.722;8.736;2023-08-08T07:50:18;18.80;97.40
10459;DHT22;5277;48.722;8.736;2023-08-08T07:52:44;19.00;97.40
10459;DHT22;5277;48.722;8.736;2023-08-08T07:55:09;19.10;96.60
10459;DHT22;5277;48.722;8.736;2023-08-08T07:57:35;19.30;95.10
10459;DHT22;5277;48.722;8.736;2023-08-08T08:00:02;19.40;95.40
10459;DHT22;5277;48.722;8.736;2023-08-08T08:02:34;19.40;93.50
10459;DHT22;5277;48.722;8.736;2023-08-08T08:04:59;19.50;94.50
10459;DHT22;5277;48.722;8.736;2023-08-08T08:07:25;19.80;93.10
10459;DHT22;5277;48.722;8.736;2023-08-08T08:09:50;19.90;93.80
10459;DHT22;5277;48.722;8.736;2023-08-08T08:12:16;20.20;93.70
10459;DHT22;5277;48.722;8.736;2023-08-08T08:14:41;20.40;91.80
10459;DHT22;5277;48.722;8.736;2023-08-08T08:17:07;20.50;91.70
10459;DHT22;5277;48.722;8.736;2023-08-08T08:19:34;20.50;91.10
10459;DHT22;5277;48.722;8.736;2023-08-08T08:21:59;20.50;91.20
10459;DHT22;5277;48.722;8.736;2023-08-08T08:24:25;20.40;90.80
10459;DHT22;5277;48.722;8.736;2023-08-08T08:26:50;20.50;91.60
10459;DHT22;5277;48.722;8.736;2023-08-08T08:29:16;20.30;91.00
10459;DHT22;5277;48.722;8.736;2023-08-08T08:31:42;20.30;90.90
10459;DHT22;5277;48.722;8.736;2023-08-08T08:34:07;20.30;91.30
10459;DHT22;5277;48.722;8.736;2023-08-08T08:36:33;20.20;91.20
10459;DHT22;5277;48.722;8.736;2023-08-08T08:38:58;20.30;92.60
10459;DHT22;5277;48.722;8.736;2023-08-08T08:41:27;20.40;91.80
10459;DHT22;5277;48.722;8.736;2023-08-08T08:43:54;20.50;91.30
10459;DHT22;5277;48.722;8.736;2023-08-08T08:46:21;20.50;91.20
10459;DHT22;5277;48.722;8.736;2023-08-08T08:48:51;20.50;90.80
10459;DHT22;5277;48.722;8.736;2023-08-08T08:51:18;20.60;90.90
10459;DHT22;5277;48.722;8.736;2023-08-08T08:53:44;20.70;90.40
10459;DHT22;5277;48.722;8.736;2023-08-08T08:56:15;20.90;90.40
10459;DHT22;5277;48.722;8.736;2023-08-08T08:58:42;21.20;90.50
10459;DHT22;5277;48.722;8.736;2023-08-08T09:01:09;21.30;88.60
10459;DHT22;5277;48.722;8.736;2023-08-08T09:03:35;21.40;88.20
10459;DHT22;5277;48.722;8.736;2023-08-08T09:06:02;21.40;87.10
10459;DHT22;5277;48.722;8.736;2023-08-08T09:08:28;21.60;86.40
10459;DHT22;5277;48.722;8.736;2023-08-08T09:10:55;21.60;86.80
10459;DHT22;5277;48.722;8.736;2023-08-08T09:13:22;21.70;87.30
10459;DHT22;5277;48.722;8.736;2023-08-08T09:15:48;21.90;86.30
10459;DHT22;5277;48.722;8.736;2023-08-08T09:18:16;22.00;84.80
10459;DHT22;5277;48.722;8.736;2023-08-08T09:20:47;22.20;82.70
10459;DHT22;5277;48.722;8.736;2023-08-08T09:23:14;22.30;82.30
10459;DHT22;5277;48.722;8.736;2023-08-08T09:25:39;22.40;80.40
10459;DHT22;5277;48.722;8.736;2023-08-08T09:28:05;22.50;80.30
10459;DHT22;5277;48.722;8.736;2023-08-08T09:30:31;22.60;79.40
10459;DHT22;5277;48.722;8.736;2023-08-08T09:33:01;22.70;79.40
10459;DHT22;5277;48.722;8.736;2023-08-08T09:35:29;22.80;79.50
10459;DHT22;5277;48.722;8.736;2023-08-08T09:37:55;22.80;77.20
10459;DHT22;5277;48.722;8.736;2023-08-08T09:40:22;22.80;74.40
10459;DHT22;5277;48.722;8.736;2023-08-08T09:42:50;22.90;77.10
10459;DHT22;5277;48.722;8.736;2023-08-08T09:45:16;22.90;74.80
10459;DHT22;5277;48.722;8.736;2023-08-08T09:47:41;23.00;75.30
10459;DHT22;5277;48.722;8.736;2023-08-08T09:50:07;23.10;74.60
10459;DHT22;5277;48.722;8.736;2023-08-08T09:52:34;23.20;74.50
10459;DHT22;5277;48.722;8.736;2023-08-08T09:55:00;23.40;73.60
10459;DHT22;5277;48.722;8.736;2023-08-08T09:57:26;23.40;72.70
10459;DHT22;5277;48.722;8.736;2023-08-08T09:59:52;23.50;73.10
10459;DHT22;5277;48.722;8.736;2023-08-08T10:02:18;23.40;71.60
10459;DHT22;5277;48.722;8.736;2023-08-08T10:04:45;23.50;71.70
10459;DHT22;5277;48.722;8.736;2023-08-08T10:07:11;23.60;71.60
10459;DHT22;5277;48.722;8.736;2023-08-08T10:09:37;23.70;71.00
10459;DHT22;5277;48.722;8.736;2023-08-08T10:12:04;23.80;70.70
10459;DHT22;5277;48.722;8.736;2023-08-08T10:14:32;24.10;70.30
10459;DHT22;5277;48.722;8.736;2023-08-08T10:17:03;24.40;70.60
10459;DHT22;5277;48.722;8.736;2023-08-08T10:19:29;24.70;68.00
10459;DHT22;5277;48.722;8.736;2023-08-08T10:22:07;24.70;68.70
10459;DHT22;5277;48.722;8.736;2023-08-08T10:24:35;24.90;67.10
10459;DHT22;5277;48.722;8.736;2023-08-08T10:27:02;25.10;65.80
10459;DHT22;5277;48.722;8.736;2023-08-08T10:29:31;25.50;64.20
10459;DHT22;5277;48.722;8.736;2023-08-08T10:32:05;25.80;62.30
10459;DHT22;5277;48.722;8.736;2023-08-08T10:34:38;26.10;62.40
10459;DHT22;5277;48.722;8.736;2023-08-08T10:37:08;25.90;62.30
10459;DHT22;5277;48.722;8.736;2023-08-08T10:39:34;26.50;62.90
10459;DHT22;5277;48.722;8.736;2023-08-08T10:42:03;26.90;58.00
10459;DHT22;5277;48.722;8.736;2023-08-08T10:44:29;27.10;58.40
10459;DHT22;5277;48.722;8.736;2023-08-08T10:46:55;27.40;57.50
10459;DHT22;5277;48.722;8.736;2023-08-08T10:49:21;27.70;57.60
10459;DHT22;5277;48.722;8.736;2023-08-08T10:51:48;28.10;56.10
10459;DHT22;5277;48.722;8.736;2023-08-08T10:54:25;28.30;54.90
10459;DHT22;5277;48.722;8.736;2023-08-08T10:56:57;28.60;55.10
10459;DHT22;5277;48.722;8.736;2023-08-08T10:59:36;28.70;53.90
10459;DHT22;5277;48.722;8.736;2023-08-08T11:02:02;29.10;52.40
10459;DHT22;5277;48.722;8.736;2023-08-08T11:04:28;29.20;51.10
10459;DHT22;5277;48.722;8.736;2023-08-08T11:06:56;28.70;52.00
10459;DHT22;5277;48.722;8.736;2023-08-08T11:09:22;28.60;51.20
10459;DHT22;5277;48.722;8.736;2023-08-08T11:11:48;28.10;51.40
10459;DHT22;5277;48.722;8.736;2023-08-08T11:14:19;27.90;52.70
10459;DHT22;5277;48.722;8.736;2023-08-08T11:16:46;28.40;53.20
10459;DHT22;5277;48.722;8.736;2023-08-08T11:19:13;29.00;52.40
10459;DHT22;5277;48.722;8.736;2023-08-08T11:21:44;29.20;51.30
10459;DHT22;5277;48.722;8.736;2023-08-08T11:24:11;29.20;50.00
10459;DHT22;5277;48.722;8.736;2023-08-08T11:26:39;29.40;49.80
10459;DHT22;5277;48.722;8.736;2023-08-08T11:29:05;29.80;49.20
10459;DHT22;5277;48.722;8.736;2023-08-08T11:31:31;30.00;47.30
10459;DHT22;5277;48.722;8.736;2023-08-08T11:33:58;30.70;48.60
10459;DHT22;5277;48.722;8.736;2023-08-08T11:36:31;31.40;48.70
10459;DHT22;5277;48.722;8.736;2023-08-08T11:39:00;31.50;45.60
10459;DHT22;5277;48.722;8.736;2023-08-08T11:41:26;30.80;45.70
10459;DHT22;5277;48.722;8.736;2023-08-08T11:43:52;30.40;47.80
10459;DHT22;5277;48.722;8.736;2023-08-08T11:46:19;30.50;47.10
10459;DHT22;5277;48.722;8.736;2023-08-08T11:48:48;30.30;48.30
10459;DHT22;5277;48.722;8.736;2023-08-08T11:51:15;29.80;48.60
10459;DHT22;5277;48.722;8.736;2023-08-08T11:53:51;29.60;49.70
10459;DHT22;5277;48.722;8.736;2023-08-08T11:56:19;29.40;49.10
10459;DHT22;5277;48.722;8.736;2023-08-08T11:58:45;28.80;49.20
10459;DHT22;5277;48.722;8.736;2023-08-08T12:01:11;28.20;50.00
10459;DHT22;5277;48.722;8.736;2023-08-08T12:03:39;28.00;53.00
10459;DHT22;5277;48.722;8.736;2023-08-08T12:06:15;28.40;51.30
10459;DHT22;5277;48.722;8.736;2023-08-08T12:08:45;29.00;51.00
10459;DHT22;5277;48.722;8.736;2023-08-08T12:11:12;29.10;51.70
10459;DHT22;5277;48.722;8.736;2023-08-08T12:13:40;28.80;49.60
10459;DHT22;5277;48.722;8.736;2023-08-08T12:16:11;28.60;47.90
10459;DHT22;5277;48.722;8.736;2023-08-08T12:18:38;28.40;49.50
10459;DHT22;5277;48.722;8.736;2023-08-08T12:21:08;28.30;51.60
10459;DHT22;5277;48.722;8.736;2023-08-08T12:23:34;28.30;51.60
10459;DHT22;5277;48.722;8.736;2023-08-08T12:26:03;28.30;49.40
10459;DHT22;5277;48.722;8.736;2023-08-08T12:28:28;28.10;51.90
10459;DHT22;5277;48.722;8.736;2023-08-08T12:30:54;27.50;51.90
10459;DHT22;5277;48.722;8.736;2023-08-08T12:33:20;26.90;51.90
10459;DHT22;5277;48.722;8.736;2023-08-08T12:35:46;26.30;54.70
10459;DHT22;5277;48.722;8.736;2023-08-08T12:38:12;25.70;56.30
10459;DHT22;5277;48.722;8.736;2023-08-08T12:40:38;25.10;57.10
10459;DHT22;5277;48.722;8.736;2023-08-08T12:43:04;24.60;58.40
10459;DHT22;5277;48.722;8.736;2023-08-08T12:45:32;24.70;60.30
10459;DHT22;5277;48.722;8.736;2023-08-08T12:47:58;25.60;60.60
10459;DHT22;5277;48.722;8.736;2023-08-08T12:50:24;26.80;57.10
10459;DHT22;5277;48.722;8.736;2023-08-08T12:52:50;27.20;55.90
10459;DHT22;5277;48.722;8.736;2023-08-08T12:55:15;27.10;55.60
10459;DHT22;5277;48.722;8.736;2023-08-08T12:57:43;26.90;58.00
10459;DHT22;5277;48.722;8.736;2023-08-08T13:00:11;26.50;56.20
10459;DHT22;5277;48.722;8.736;2023-08-08T13:02:38;26.10;57.80
10459;DHT22;5277;48.722;8.736;2023-08-08T13:05:04;25.80;58.30
10459;DHT22;5277;48.722;8.736;2023-08-08T13:07:32;25.50;59.20
10459;DHT22;5277;48.722;8.736;2023-08-08T13:09:58;25.20;60.10
10459;DHT22;5277;48.722;8.736;2023-08-08T13:12:23;25.00;61.00
10459;DHT22;5277;48.722;8.736;2023-08-08T13:14:49;24.70;61.90
10459;DHT22;5277;48.722;8.736;2023-08-08T13:17:14;24.40;63.30
10459;DHT22;5277;48.722;8.736;2023-08-08T13:19:40;24.10;63.60
10459;DHT22;5277;48.722;8.736;2023-08-08T13:22:06;23.80;62.40
10459;DHT22;5277;48.722;8.736;2023-08-08T13:24:32;23.60;63.50
10459;DHT22;5277;48.722;8.736;2023-08-08T13:26:57;23.50;65.00
10459;DHT22;5277;48.722;8.736;2023-08-08T13:29:23;23.30;63.90
10459;DHT22;5277;48.722;8.736;2023-08-08T13:31:49;23.10;64.20
10459;DHT22;5277;48.722;8.736;2023-08-08T13:34:14;23.10;67.00
10459;DHT22;5277;48.722;8.736;2023-08-08T13:36:40;23.10;65.20
10459;DHT22;5277;48.722;8.736;2023-08-08T13:39:07;23.20;69.00
10459;DHT22;5277;48.722;8.736;2023-08-08T13:41:35;23.10;66.70
10459;DHT22;5277;48.722;8.736;2023-08-08T13:44:00;23.10;65.70
10459;DHT22;5277;48.722;8.736;2023-08-08T13:46:26;23.00;63.40
10459;DHT22;5277;48.722;8.736;2023-08-08T13:48:51;23.00;64.40
10459;DHT22;5277;48.722;8.736;2023-08-08T13:51:17;23.00;64.20
10459;DHT22;5277;48.722;8.736;2023-08-08T13:53:43;23.00;63.70
10459;DHT22;5277;48.722;8.736;2023-08-08T13:56:10;23.00;66.00
10459;DHT22;5277;48.722;8.736;2023-08-08T13:58:36;22.90;64.90
10459;DHT22;5277;48.722;8.736;2023-08-08T14:01:02;22.80;65.10
10459;DHT22;5277;48.722;8.736;2023-08-08T14:03:27;22.70;65.40
10459;DHT22;5277;48.722;8.736;2023-08-08T14:05:53;22.70;65.90
10459;DHT22;5277;48.722;8.736;2023-08-08T14:08:19;22.60;66.80
10459;DHT22;5277;48.722;8.736;2023-08-08T14:10:45;22.50;66.50
10459;DHT22;5277;48.722;8.736;2023-08-08T14:13:11;22.50;66.80
10459;DHT22;5277;48.722;8.736;2023-08-08T14:15:37;22.40;65.30
10459;DHT22;5277;48.722;8.736;2023-08-08T14:18:03;22.30;64.50
10459;DHT22;5277;48.722;8.736;2023-08-08T14:20:28;22.20;64.20
10459;DHT22;5277;48.722;8.736;2023-08-08T14:22:54;22.20;65.40
10459;DHT22;5277;48.722;8.736;2023-08-08T14:25:20;22.20;66.60
10459;DHT22;5277;48.722;8.736;2023-08-08T14:27:46;22.10;66.10
10459;DHT22;5277;48.722;8.736;2023-08-08T14:30:11;22.10;68.50
10459;DHT22;5277;48.722;8.736;2023-08-08T14:32:37;22.00;68.00
10459;DHT22;5277;48.722;8.736;2023-08-08T14:35:03;21.90;70.70
10459;DHT22;5277;48.722;8.736;2023-08-08T14:37:31;21.80;69.80
10459;DHT22;5277;48.722;8.736;2023-08-08T14:39:56;21.90;71.30
10459;DHT22;5277;48.722;8.736;2023-08-08T14:42:22;21.80;71.30
10459;DHT22;5277;48.722;8.736;2023-08-08T14:44:48;21.80;72.00
10459;DHT22;5277;48.722;8.736;2023-08-08T14:47:13;21.80;72.90
10459;DHT22;5277;48.722;8.736;2023-08-08T14:49:39;21.80;71.10
10459;DHT22;5277;48.722;8.736;2023-08-08T14:52:05;21.90;70.60
10459;DHT22;5277;48.722;8.736;2023-08-08T14:54:30;21.80;68.60
10459;DHT22;5277;48.722;8.736;2023-08-08T14:56:56;21.70;69.50
10459;DHT22;5277;48.722;8.736;2023-08-08T14:59:21;21.60;71.50
10459;DHT22;5277;48.722;8.736;2023-08-08T15:01:47;21.70;71.10
10459;DHT22;5277;48.722;8.736;2023-08-08T15:04:13;21.60;71.80
10459;DHT22;5277;48.722;8.736;2023-08-08T15:06:38;21.60;71.60
10459;DHT22;5277;48.722;8.736;2023-08-08T15:09:06;21.60;72.10
10459;DHT22;5277;48.722;8.736;2023-08-08T15:11:31;21.50;71.20
10459;DHT22;5277;48.722;8.736;2023-08-08T15:13:57;21.40;75.50
10459;DHT22;5277;48.722;8.736;2023-08-08T15:16:23;21.40;79.80
10459;DHT22;5277;48.722;8.736;2023-08-08T15:18:48;21.30;79.20
10459;DHT22;5277;48.722;8.736;2023-08-08T15:21:14;21.40;74.00
10459;DHT22;5277;48.722;8.736;2023-08-08T15:23:45;21.50;73.40
10459;DHT22;5277;48.722;8.736;2023-08-08T15:26:10;21.40;73.70
10459;DHT22;5277;48.722;8.736;2023-08-08T15:28:37;21.40;73.30
10459;DHT22;5277;48.722;8.736;2023-08-08T15:31:03;21.40;75.40
10459;DHT22;5277;48.722;8.736;2023-08-08T15:33:29;21.20;75.00
10459;DHT22;5277;48.722;8.736;2023-08-08T15:35:54;21.20;75.40
10459;DHT22;5277;48.722;8.736;2023-08-08T15:38:20;21.20;77.80
10459;DHT22;5277;48.722;8.736;2023-08-08T15:40:45;21.10;76.70